Time;durP1;ratioP1;P1;durP2;ratioP2;P2;SDS_P1;SDS_P2;PMS_P1;PMS_P2;Temp;Humidity;BMP_temperature;BMP_pressure;BME280_temperature;BME280_humidity;BME280_pressure;Samples;Min_cycle;Max_cycle;Signal;HPM_P1;HPM_P2
2023/03/08 00:00:59;;;;;;;9.70;5.90;;;;;;;;;;4898428;29;20473;-79
2023/03/08 00:03:25;;;;;;;8.05;5.45;;;;;;;;;;4898002;29;20174;-79
2023/03/08 00:05:52;;;;;;;12.20;5.63;;;;;;;;;;4897940;29;20044;-79
2023/03/08 00:08:18;;;;;;;7.07;5.47;;;;;;;;;;4896702;29;20028;-79
2023/03/08 00:10:44;;;;;;;9.38;5.53;;;;;;;;;;4896536;29;20029;-79
2023/03/08 00:13:10;;;;;;;7.85;5.55;;;;;;;;;;4897628;29;20132;-79
2023/03/08 00:15:37;;;;;;;6.18;5.03;;;;;;;;;;4893669;29;20036;-79
2023/03/08 00:18:04;;;;;;;10.05;5.40;;;;;;;;;;4899423;29;20527;-79
2023/03/08 00:20:30;;;;;;;11.00;5.15;;;;;;;;;;4892300;29;20028;-79
2023/03/08 00:22:56;;;;;;;12.05;5.35;;;;;;;;;;4898100;29;20383;-79
2023/03/08 00:25:22;;;;;;;9.70;5.22;;;;;;;;;;4884328;29;20111;-81
2023/03/08 00:27:48;;;;;;;7.85;4.85;;;;;;;;;;4898032;29;20040;-80
2023/03/08 00:30:15;;;;;;;13.18;4.97;;;;;;;;;;4900882;29;20172;-80
2023/03/08 00:32:41;;;;;;;8.98;5.03;;;;;;;;;;4899071;29;20031;-79
2023/03/08 00:35:07;;;;;;;7.68;5.10;;;;;;;;;;4894849;29;20025;-79
2023/03/08 00:37:33;;;;;;;7.07;4.90;;;;;;;;;;4896321;29;20032;-79
2023/03/08 00:39:59;;;;;;;10.82;6.32;;;;;;;;;;4876825;29;20024;-79
2023/03/08 00:42:25;;;;;;;7.65;4.97;;;;;;;;;;4893011;29;20435;-79
2023/03/08 00:44:51;;;;;;;9.25;6.22;;;;;;;;;;4894113;29;20556;-79
2023/03/08 00:47:18;;;;;;;8.05;5.47;;;;;;;;;;4912397;29;20060;-78
2023/03/08 00:49:44;;;;;;;7.53;5.85;;;;;;;;;;4881647;29;20032;-78
2023/03/08 00:52:10;;;;;;;10.82;6.00;;;;;;;;;;4879720;29;20107;-78
2023/03/08 00:54:36;;;;;;;6.80;5.03;;;;;;;;;;4876082;29;20400;-79
2023/03/08 00:57:03;;;;;;;7.93;5.60;;;;;;;;;;4880634;29;20477;-79
2023/03/08 00:59:29;;;;;;;9.82;4.97;;;;;;;;;;4880194;29;20534;-79
2023/03/08 01:01:55;;;;;;;7.25;4.93;;;;;;;;;;4870535;29;20029;-78
2023/03/08 01:04:21;;;;;;;5.70;4.20;;;;;;;;;;4879576;29;20028;-78
2023/03/08 01:06:47;;;;;;;10.98;5.20;;;;;;;;;;4877807;29;20497;-79
2023/03/08 01:09:13;;;;;;;7.53;3.90;;;;;;;;;;4876688;29;20064;-79
2023/03/08 01:11:39;;;;;;;7.07;4.50;;;;;;;;;;4878270;29;20507;-79
2023/03/08 01:14:09;;;;;;;5.25;3.80;;;;;;;;;;4886146;29;20036;-78
2023/03/08 01:16:35;;;;;;;5.22;4.05;;;;;;;;;;4876469;29;20037;-78
2023/03/08 01:19:02;;;;;;;4.50;3.40;;;;;;;;;;4871691;29;20043;-79
2023/03/08 01:21:29;;;;;;;6.93;4.20;;;;;;;;;;4875400;29;20053;-79
2023/03/08 01:23:55;;;;;;;6.75;3.65;;;;;;;;;;4881546;29;20472;-79
2023/03/08 01:26:23;;;;;;;4.30;3.50;;;;;;;;;;4877131;29;20036;-80
2023/03/08 01:28:49;;;;;;;5.20;3.97;;;;;;;;;;4878739;29;20112;-79
2023/03/08 01:31:20;;;;;;;8.30;3.90;;;;;;;;;;4870996;29;20089;-79
2023/03/08 01:33:46;;;;;;;3.80;3.17;;;;;;;;;;4884139;29;20527;-78
2023/03/08 01:36:16;;;;;;;6.57;3.33;;;;;;;;;;4870924;29;20037;-77
2023/03/08 01:38:43;;;;;;;3.95;3.33;;;;;;;;;;4877373;29;20060;-80
2023/03/08 01:41:13;;;;;;;5.10;3.50;;;;;;;;;;4857268;29;20032;-78
2023/03/08 01:43:39;;;;;;;5.97;4.10;;;;;;;;;;4874192;29;20527;-79
2023/03/08 01:46:11;;;;;;;9.07;3.55;;;;;;;;;;4876605;29;20041;-79
2023/03/08 01:48:58;;;;;;;5.90;3.58;;;;;;;;;;4863043;29;20037;-79
2023/03/08 01:51:26;;;;;;;4.10;2.95;;;;;;;;;;4860252;29;20131;-79
2023/03/08 01:53:53;;;;;;;4.30;3.38;;;;;;;;;;4888237;29;20479;-79
2023/03/08 01:56:20;;;;;;;3.20;2.53;;;;;;;;;;4892571;29;20036;-79
2023/03/08 01:58:47;;;;;;;4.05;2.80;;;;;;;;;;4901036;29;20092;-79
2023/03/08 02:01:13;;;;;;;4.93;2.95;;;;;;;;;;4892036;29;20032;-79
2023/03/08 02:03:40;;;;;;;3.17;2.30;;;;;;;;;;4897466;29;20051;-79
2023/03/08 02:06:07;;;;;;;3.70;2.55;;;;;;;;;;4876779;29;20033;-79
2023/03/08 02:08:33;;;;;;;4.50;2.92;;;;;;;;;;4874309;29;20543;-79
2023/03/08 02:11:00;;;;;;;4.18;2.75;;;;;;;;;;4887787;29;20492;-79
2023/03/08 02:13:27;;;;;;;3.53;2.60;;;;;;;;;;4877313;29;20035;-79
2023/03/08 02:15:55;;;;;;;3.53;2.38;;;;;;;;;;4897578;29;20064;-79
2023/03/08 02:18:21;;;;;;;3.15;2.63;;;;;;;;;;4880532;29;20039;-78
2023/03/08 02:20:47;;;;;;;2.13;1.92;;;;;;;;;;4898704;29;20189;-78
2023/03/08 02:23:15;;;;;;;5.18;2.70;;;;;;;;;;4895935;29;20028;-79
2023/03/08 02:25:41;;;;;;;3.28;1.90;;;;;;;;;;4895016;29;20021;-79
2023/03/08 02:28:08;;;;;;;3.50;2.20;;;;;;;;;;4897915;29;20041;-78
2023/03/08 02:30:36;;;;;;;4.90;3.20;;;;;;;;;;4900456;29;20107;-81
2023/03/08 02:33:02;;;;;;;3.67;2.03;;;;;;;;;;4900759;29;20025;-78
2023/03/08 02:35:29;;;;;;;2.35;1.95;;;;;;;;;;4889074;29;20036;-78
2023/03/08 02:37:55;;;;;;;2.20;1.80;;;;;;;;;;4906256;29;20047;-78
2023/03/08 02:40:22;;;;;;;4.63;2.30;;;;;;;;;;4880420;29;20029;-78
2023/03/08 02:42:48;;;;;;;3.50;1.98;;;;;;;;;;4899586;29;20032;-79
2023/03/08 02:45:14;;;;;;;2.72;1.88;;;;;;;;;;4897176;29;20373;-78
2023/03/08 02:47:41;;;;;;;2.00;1.80;;;;;;;;;;4895644;29;20025;-79
2023/03/08 02:50:07;;;;;;;6.95;1.90;;;;;;;;;;4900546;29;20123;-79
2023/03/08 02:52:34;;;;;;;2.07;1.60;;;;;;;;;;4854729;29;1227356;-79
2023/03/08 02:55:00;;;;;;;2.45;1.80;;;;;;;;;;4906673;29;20264;-79
2023/03/08 02:57:26;;;;;;;2.38;1.50;;;;;;;;;;4904899;29;20159;-81
2023/03/08 02:59:52;;;;;;;1.90;1.50;;;;;;;;;;4897688;29;20028;-79
2023/03/08 03:02:18;;;;;;;3.20;2.15;;;;;;;;;;4911058;29;20522;-79
2023/03/08 03:04:44;;;;;;;3.45;1.80;;;;;;;;;;4898354;29;20378;-78
2023/03/08 03:07:10;;;;;;;3.30;1.75;;;;;;;;;;4901224;29;20025;-79
2023/03/08 03:09:36;;;;;;;1.50;1.40;;;;;;;;;;4898048;29;20039;-78
2023/03/08 03:12:02;;;;;;;2.28;1.60;;;;;;;;;;4902330;29;20028;-78
2023/03/08 03:14:28;;;;;;;1.75;1.65;;;;;;;;;;4894013;29;20084;-79
2023/03/08 03:16:54;;;;;;;2.17;1.50;;;;;;;;;;4896388;29;20456;-79
2023/03/08 03:19:20;;;;;;;1.65;1.48;;;;;;;;;;4887823;29;20025;-77
2023/03/08 03:21:46;;;;;;;2.42;1.50;;;;;;;;;;4885977;29;20040;-78
2023/03/08 03:24:13;;;;;;;1.40;1.30;;;;;;;;;;4896607;29;20032;-79
2023/03/08 03:26:39;;;;;;;1.80;1.50;;;;;;;;;;4891966;29;20029;-78
2023/03/08 03:29:05;;;;;;;3.58;1.70;;;;;;;;;;4893335;29;20032;-79
2023/03/08 03:31:31;;;;;;;6.90;2.00;;;;;;;;;;4895503;29;20084;-79
2023/03/08 03:33:57;;;;;;;2.92;2.03;;;;;;;;;;4889754;29;20480;-80
2023/03/08 03:36:23;;;;;;;2.08;1.70;;;;;;;;;;4880285;29;20032;-79
2023/03/08 03:38:50;;;;;;;3.05;1.60;;;;;;;;;;4893894;29;20082;-78
2023/03/08 03:41:17;;;;;;;1.63;1.48;;;;;;;;;;4893841;29;20503;-79
2023/03/08 03:43:43;;;;;;;2.38;1.48;;;;;;;;;;4895763;29;20088;-80
2023/03/08 03:46:14;;;;;;;2.22;1.63;;;;;;;;;;4878934;29;20441;-79
2023/03/08 03:48:40;;;;;;;2.10;1.90;;;;;;;;;;4898024;29;20108;-79
2023/03/08 03:51:08;;;;;;;3.03;1.70;;;;;;;;;;4886338;29;20040;-79
2023/03/08 03:53:35;;;;;;;1.88;1.67;;;;;;;;;;4892096;29;20078;-78
2023/03/08 03:56:04;;;;;;;1.98;1.50;;;;;;;;;;4897047;29;20483;-79
2023/03/08 03:58:30;;;;;;;6.93;2.03;;;;;;;;;;4895977;29;20071;-79
2023/03/08 04:00:57;;;;;;;1.55;1.45;;;;;;;;;;4897234;29;20032;-79
2023/03/08 04:03:23;;;;;;;2.03;1.40;;;;;;;;;;4895623;29;20108;-79
2023/03/08 04:05:49;;;;;;;1.70;1.60;;;;;;;;;;4894614;29;20363;-79
2023/03/08 04:08:16;;;;;;;2.38;1.60;;;;;;;;;;4894468;29;20158;-79
2023/03/08 04:10:42;;;;;;;1.52;1.40;;;;;;;;;;4882269;29;20414;-79
2023/03/08 04:13:10;;;;;;;2.33;1.40;;;;;;;;;;4896594;29;20032;-78
2023/03/08 04:15:36;;;;;;;2.53;1.70;;;;;;;;;;4898208;29;20543;-78
2023/03/08 04:18:02;;;;;;;2.47;1.67;;;;;;;;;;4901156;29;20032;-78
2023/03/08 04:20:28;;;;;;;2.45;1.85;;;;;;;;;;4895169;29;20028;-79
2023/03/08 04:22:54;;;;;;;1.60;1.50;;;;;;;;;;4900537;29;20029;-78
2023/03/08 04:25:20;;;;;;;2.15;1.80;;;;;;;;;;4895598;29;20032;-78
2023/03/08 04:27:46;;;;;;;1.25;1.15;;;;;;;;;;4889821;29;20099;-79
2023/03/08 04:30:12;;;;;;;2.38;1.30;;;;;;;;;;4895566;29;20041;-78
2023/03/08 04:32:39;;;;;;;1.77;1.40;;;;;;;;;;4889533;29;20130;-79
2023/03/08 04:35:05;;;;;;;2.58;1.60;;;;;;;;;;4889249;29;20025;-79
2023/03/08 04:37:31;;;;;;;1.10;1.10;;;;;;;;;;4894297;29;20060;-78
2023/03/08 04:39:57;;;;;;;1.38;1.27;;;;;;;;;;4896046;29;20072;-78
2023/03/08 04:42:23;;;;;;;1.20;1.10;;;;;;;;;;4891848;29;20036;-79
2023/03/08 04:44:49;;;;;;;1.63;1.30;;;;;;;;;;4894964;29;20055;-79
2023/03/08 04:47:15;;;;;;;1.33;1.23;;;;;;;;;;4896394;29;20293;-78
2023/03/08 04:49:41;;;;;;;1.88;1.55;;;;;;;;;;4893884;29;20033;-78
2023/03/08 04:52:08;;;;;;;1.50;1.40;;;;;;;;;;4892566;29;20024;-78
2023/03/08 04:54:34;;;;;;;1.50;1.40;;;;;;;;;;4892178;29;20495;-78
2023/03/08 04:57:00;;;;;;;2.38;1.40;;;;;;;;;;4892802;29;20037;-79
2023/03/08 04:59:26;;;;;;;2.15;1.30;;;;;;;;;;4893397;29;20033;-80
2023/03/08 05:01:52;;;;;;;1.13;1.13;;;;;;;;;;4899908;29;20025;-79
2023/03/08 05:04:18;;;;;;;3.83;1.30;;;;;;;;;;4882470;29;20037;-80
2023/03/08 05:06:44;;;;;;;1.90;1.48;;;;;;;;;;4892808;29;20024;-78
2023/03/08 05:09:10;;;;;;;1.30;1.20;;;;;;;;;;4902999;29;20028;-79
2023/03/08 05:11:36;;;;;;;1.25;1.25;;;;;;;;;;4901873;29;20111;-79
2023/03/08 05:14:03;;;;;;;3.72;1.48;;;;;;;;;;4900710;29;20166;-78
2023/03/08 05:16:29;;;;;;;2.33;1.20;;;;;;;;;;4901077;29;20035;-79
2023/03/08 05:18:55;;;;;;;1.30;1.10;;;;;;;;;;4878813;29;20391;-79
2023/03/08 05:21:23;;;;;;;1.42;1.35;;;;;;;;;;4899488;29;20136;-78
2023/03/08 05:23:49;;;;;;;2.08;1.30;;;;;;;;;;4903611;29;20052;-79
2023/03/08 05:26:16;;;;;;;3.40;1.35;;;;;;;;;;4899761;29;20009;-79
2023/03/08 05:28:42;;;;;;;1.10;1.10;;;;;;;;;;4899523;29;20045;-78
2023/03/08 05:31:10;;;;;;;1.55;1.48;;;;;;;;;;4889870;29;20029;-79
2023/03/08 05:33:37;;;;;;;1.58;1.30;;;;;;;;;;4897007;29;20037;-78
2023/03/08 05:36:03;;;;;;;1.40;1.17;;;;;;;;;;4889041;29;20046;-79
2023/03/08 05:38:29;;;;;;;1.40;1.30;;;;;;;;;;4878113;29;20539;-79
2023/03/08 05:40:59;;;;;;;1.42;1.35;;;;;;;;;;4887882;29;20033;-80
2023/03/08 05:43:25;;;;;;;2.03;1.27;;;;;;;;;;4884467;29;20207;-78
2023/03/08 05:45:56;;;;;;;1.20;1.20;;;;;;;;;;4897234;29;20099;-79
2023/03/08 05:48:22;;;;;;;1.40;1.40;;;;;;;;;;4901683;29;20530;-79
2023/03/08 05:50:48;;;;;;;1.38;1.27;;;;;;;;;;4891773;29;20018;-79
2023/03/08 05:53:14;;;;;;;1.25;1.15;;;;;;;;;;4890891;29;20047;-79
2023/03/08 05:55:40;;;;;;;1.23;1.13;;;;;;;;;;4891227;29;20370;-78
2023/03/08 05:58:06;;;;;;;1.92;1.23;;;;;;;;;;4893531;29;20037;-78
2023/03/08 06:00:32;;;;;;;2.13;1.75;;;;;;;;;;4894749;29;20020;-78
2023/03/08 06:02:59;;;;;;;1.40;1.30;;;;;;;;;;4894187;29;20125;-78
2023/03/08 06:05:25;;;;;;;1.60;1.10;;;;;;;;;;4896520;29;20024;-77
2023/03/08 06:07:52;;;;;;;1.15;1.15;;;;;;;;;;4876953;29;20820;-78
2023/03/08 06:10:19;;;;;;;2.35;1.30;;;;;;;;;;4893217;29;20028;-78
2023/03/08 06:12:45;;;;;;;1.70;1.45;;;;;;;;;;4883838;29;20032;-78
2023/03/08 06:15:12;;;;;;;1.83;1.30;;;;;;;;;;4890540;29;20476;-78
2023/03/08 06:17:38;;;;;;;3.13;1.58;;;;;;;;;;4893208;29;20043;-78
2023/03/08 06:20:04;;;;;;;1.50;1.40;;;;;;;;;;4892242;29;20484;-79
2023/03/08 06:22:30;;;;;;;1.85;1.40;;;;;;;;;;4889633;29;20440;-79
2023/03/08 06:24:56;;;;;;;1.60;1.42;;;;;;;;;;4894839;29;20088;-78
2023/03/08 06:27:22;;;;;;;2.20;1.40;;;;;;;;;;4895979;29;20028;-79
2023/03/08 06:29:49;;;;;;;4.03;1.98;;;;;;;;;;4894026;29;20037;-79
2023/03/08 06:32:16;;;;;;;1.33;1.23;;;;;;;;;;4889691;29;20069;-79
2023/03/08 06:34:42;;;;;;;2.42;1.30;;;;;;;;;;4896164;29;20037;-79
2023/03/08 06:37:08;;;;;;;1.45;1.35;;;;;;;;;;4886682;29;20559;-77
2023/03/08 06:39:34;;;;;;;1.60;1.50;;;;;;;;;;4886014;29;20033;-77
2023/03/08 06:42:01;;;;;;;1.60;1.50;;;;;;;;;;4887493;29;20148;-77
2023/03/08 06:44:28;;;;;;;1.20;1.20;;;;;;;;;;4869823;29;20067;-76
2023/03/08 06:46:54;;;;;;;1.80;1.30;;;;;;;;;;4898334;29;20035;-77
2023/03/08 06:49:20;;;;;;;1.83;1.38;;;;;;;;;;4895748;29;20047;-77
2023/03/08 06:51:46;;;;;;;2.10;1.55;;;;;;;;;;4893365;29;20047;-77
2023/03/08 06:54:16;;;;;;;1.90;1.48;;;;;;;;;;4890152;29;20500;-78
2023/03/08 06:56:43;;;;;;;2.08;1.40;;;;;;;;;;4874652;29;20146;-77
2023/03/08 06:59:09;;;;;;;1.77;1.50;;;;;;;;;;4891981;29;20107;-77
2023/03/08 07:01:35;;;;;;;2.75;1.50;;;;;;;;;;4896620;29;20024;-77
2023/03/08 07:04:01;;;;;;;1.40;1.30;;;;;;;;;;4892297;29;20020;-78
2023/03/08 07:06:27;;;;;;;1.55;1.40;;;;;;;;;;4901827;29;20028;-78
2023/03/08 07:08:53;;;;;;;1.77;1.42;;;;;;;;;;4899866;29;20032;-78
2023/03/08 07:11:19;;;;;;;1.55;1.45;;;;;;;;;;4899256;29;20038;-77
2023/03/08 07:13:45;;;;;;;2.92;1.52;;;;;;;;;;4893849;29;20039;-77
2023/03/08 07:16:12;;;;;;;2.63;1.70;;;;;;;;;;4895506;29;20047;-77
2023/03/08 07:18:38;;;;;;;1.85;1.60;;;;;;;;;;4897200;29;20036;-77
2023/03/08 07:21:05;;;;;;;3.35;1.50;;;;;;;;;;4896696;29;20036;-77
2023/03/08 07:23:31;;;;;;;2.80;1.38;;;;;;;;;;4897503;29;20450;-77
2023/03/08 07:25:57;;;;;;;2.17;1.85;;;;;;;;;;4878925;29;20542;-78
2023/03/08 07:28:23;;;;;;;1.50;1.40;;;;;;;;;;4900691;29;20054;-78
2023/03/08 07:30:50;;;;;;;3.63;1.67;;;;;;;;;;4893463;29;20040;-78
2023/03/08 07:33:17;;;;;;;2.67;1.50;;;;;;;;;;4898703;29;20047;-77
2023/03/08 07:35:43;;;;;;;1.73;1.50;;;;;;;;;;4894437;29;20064;-77
2023/03/08 07:38:11;;;;;;;2.00;1.50;;;;;;;;;;4897992;29;20391;-78
2023/03/08 07:40:37;;;;;;;2.83;1.75;;;;;;;;;;4897285;29;20391;-77
2023/03/08 07:43:03;;;;;;;3.63;1.88;;;;;;;;;;4891351;29;20052;-77
2023/03/08 07:45:29;;;;;;;2.03;1.50;;;;;;;;;;4897763;29;20107;-77
2023/03/08 07:47:55;;;;;;;1.98;1.70;;;;;;;;;;4898162;29;20036;-78
2023/03/08 07:50:21;;;;;;;2.17;1.77;;;;;;;;;;4894766;29;20547;-77
2023/03/08 07:52:48;;;;;;;2.47;2.10;;;;;;;;;;4904029;29;20601;-77
2023/03/08 07:55:14;;;;;;;2.65;1.83;;;;;;;;;;4893478;29;20048;-77
2023/03/08 07:57:40;;;;;;;2.88;1.65;;;;;;;;;;4896193;29;20075;-77
2023/03/08 08:00:07;;;;;;;3.80;1.80;;;;;;;;;;4898851;29;20047;-77
2023/03/08 08:02:34;;;;;;;3.25;1.90;;;;;;;;;;4890995;29;20486;-77
2023/03/08 08:05:00;;;;;;;2.20;1.75;;;;;;;;;;4895445;29;20036;-77
2023/03/08 08:07:26;;;;;;;4.15;1.52;;;;;;;;;;4895028;29;20095;-77
2023/03/08 08:09:53;;;;;;;1.23;1.23;;;;;;;;;;4893228;29;20021;-79
2023/03/08 08:12:19;;;;;;;6.40;1.85;;;;;;;;;;4894547;29;20032;-78
2023/03/08 08:14:45;;;;;;;1.70;1.60;;;;;;;;;;4899448;29;20033;-78
2023/03/08 08:17:11;;;;;;;6.22;1.88;;;;;;;;;;4891874;29;20032;-78
2023/03/08 08:19:38;;;;;;;9.88;2.67;;;;;;;;;;4901186;29;20031;-79
2023/03/08 08:22:05;;;;;;;3.45;1.92;;;;;;;;;;4878979;29;20475;-79
2023/03/08 08:24:31;;;;;;;2.35;1.55;;;;;;;;;;4899329;29;20024;-78
2023/03/08 08:26:58;;;;;;;7.45;2.10;;;;;;;;;;4896863;29;20089;-77
2023/03/08 08:29:24;;;;;;;2.85;1.83;;;;;;;;;;4900829;29;20024;-77
2023/03/08 08:31:51;;;;;;;2.58;2.00;;;;;;;;;;4891812;29;20105;-78
2023/03/08 08:34:18;;;;;;;4.43;2.53;;;;;;;;;;4901569;29;20029;-78
2023/03/08 08:36:45;;;;;;;4.00;3.20;;;;;;;;;;4894573;29;20365;-77
2023/03/08 08:39:11;;;;;;;4.90;2.70;;;;;;;;;;4896975;29;20097;-77
2023/03/08 08:41:37;;;;;;;2.50;1.83;;;;;;;;;;4894944;29;20031;-78
2023/03/08 08:44:03;;;;;;;2.65;2.10;;;;;;;;;;4902506;29;20115;-78
2023/03/08 08:46:33;;;;;;;4.90;3.53;;;;;;;;;;4877940;29;20440;-78
2023/03/08 08:49:04;;;;;;;3.67;1.70;;;;;;;;;;4892932;29;20436;-77
2023/03/08 08:51:30;;;;;;;2.38;1.58;;;;;;;;;;4873988;29;20745;-77
2023/03/08 08:53:56;;;;;;;5.22;2.80;;;;;;;;;;4897659;29;20577;-78
2023/03/08 08:56:23;;;;;;;2.83;1.70;;;;;;;;;;4893508;29;20039;-77
2023/03/08 08:58:50;;;;;;;2.55;1.75;;;;;;;;;;4888503;29;20597;-77
2023/03/08 09:01:23;;;;;;;4.47;2.30;;;;;;;;;;4883806;29;20033;-77
2023/03/08 09:03:49;;;;;;;4.75;2.72;;;;;;;;;;4895910;29;20032;-78
2023/03/08 09:06:18;;;;;;;3.05;2.60;;;;;;;;;;4870605;29;20040;-77
2023/03/08 09:08:45;;;;;;;2.40;2.10;;;;;;;;;;4903509;29;20165;-78
2023/03/08 09:11:11;;;;;;;3.25;2.67;;;;;;;;;;4890943;29;20040;-77
2023/03/08 09:13:40;;;;;;;4.15;2.35;;;;;;;;;;4891684;29;20445;-77
2023/03/08 09:16:06;;;;;;;2.72;1.98;;;;;;;;;;4894413;29;20057;-78
2023/03/08 09:18:32;;;;;;;2.85;1.88;;;;;;;;;;4891435;29;20067;-79
2023/03/08 09:21:01;;;;;;;3.08;2.13;;;;;;;;;;4876067;29;20388;-77
2023/03/08 09:23:27;;;;;;;3.60;2.28;;;;;;;;;;4898342;29;20379;-78
2023/03/08 09:25:57;;;;;;;1.77;1.67;;;;;;;;;;4880082;29;20024;-78
2023/03/08 09:28:24;;;;;;;5.20;2.00;;;;;;;;;;4890633;29;20448;-77
2023/03/08 09:30:50;;;;;;;2.50;2.00;;;;;;;;;;4897147;29;20032;-77
2023/03/08 09:33:16;;;;;;;2.17;1.85;;;;;;;;;;4897748;29;20467;-77
2023/03/08 09:35:42;;;;;;;2.38;2.17;;;;;;;;;;4893815;29;20088;-78
2023/03/08 09:38:08;;;;;;;3.17;2.05;;;;;;;;;;4873199;29;20872;-78
2023/03/08 09:40:38;;;;;;;3.45;2.10;;;;;;;;;;4898365;29;20025;-77
2023/03/08 09:43:05;;;;;;;2.00;1.80;;;;;;;;;;4901686;29;20028;-77
2023/03/08 09:45:32;;;;;;;2.42;1.70;;;;;;;;;;4875094;29;20039;-78
2023/03/08 09:48:19;;;;;;;3.25;1.98;;;;;;;;;;4896150;29;20435;-78
2023/03/08 09:50:46;;;;;;;2.92;1.52;;;;;;;;;;4898398;29;20043;-77
2023/03/08 09:53:15;;;;;;;3.97;1.50;;;;;;;;;;4892385;29;20069;-78
2023/03/08 09:55:49;;;;;;;2.33;1.70;;;;;;;;;;4878679;29;20035;-78
2023/03/08 09:58:24;;;;;;;3.05;1.80;;;;;;;;;;4900136;29;20488;-78
2023/03/08 10:00:50;;;;;;;6.50;2.08;;;;;;;;;;4893905;29;20064;-77
2023/03/08 10:03:25;;;;;;;1.90;1.70;;;;;;;;;;4892471;29;20028;-77
2023/03/08 10:05:57;;;;;;;3.92;2.05;;;;;;;;;;4895435;29;20040;-77
2023/03/08 10:08:26;;;;;;;2.08;1.70;;;;;;;;;;4878112;29;20044;-78
2023/03/08 10:10:59;;;;;;;1.83;1.73;;;;;;;;;;4893641;29;20044;-77
2023/03/08 10:13:28;;;;;;;1.80;1.50;;;;;;;;;;4898119;29;20028;-77
2023/03/08 10:16:24;;;;;;;2.50;1.50;;;;;;;;;;4899199;29;20037;-78
2023/03/08 10:18:56;;;;;;;1.58;1.48;;;;;;;;;;4857741;29;20095;-77
2023/03/08 10:21:23;;;;;;;3.70;1.90;;;;;;;;;;4890906;29;20017;-77
2023/03/08 10:23:58;;;;;;;1.80;1.70;;;;;;;;;;4896608;29;20032;-77
2023/03/08 10:26:25;;;;;;;2.45;1.88;;;;;;;;;;4879606;29;20032;-77
2023/03/08 10:28:51;;;;;;;2.15;1.85;;;;;;;;;;4895566;29;20112;-78
2023/03/08 10:31:32;;;;;;;2.10;1.90;;;;;;;;;;4884963;29;20025;-77
2023/03/08 10:34:12;;;;;;;1.60;1.50;;;;;;;;;;4889521;29;20480;-77
2023/03/08 10:36:51;;;;;;;1.70;1.60;;;;;;;;;;4896191;29;20055;-77
2023/03/08 10:39:18;;;;;;;4.45;1.77;;;;;;;;;;4897736;29;20029;-77
2023/03/08 10:41:52;;;;;;;1.83;1.70;;;;;;;;;;4905699;29;20026;-77
2023/03/08 10:44:39;;;;;;;2.70;1.80;;;;;;;;;;4897575;29;20435;-77
2023/03/08 10:47:19;;;;;;;3.55;1.70;;;;;;;;;;4894329;29;20029;-77
2023/03/08 10:49:46;;;;;;;1.73;1.63;;;;;;;;;;4897032;29;20060;-77
2023/03/08 10:52:24;;;;;;;1.98;1.67;;;;;;;;;;4898491;29;20061;-77
2023/03/08 10:55:20;;;;;;;3.08;1.65;;;;;;;;;;4889241;29;20051;-77
2023/03/08 10:57:49;;;;;;;4.40;2.40;;;;;;;;;;4882043;29;20052;-77
2023/03/08 11:00:47;;;;;;;2.10;1.90;;;;;;;;;;4903990;29;20028;-77
2023/03/08 11:03:18;;;;;;;3.40;2.25;;;;;;;;;;4847644;29;20079;-78
2023/03/08 11:05:55;;;;;;;6.55;3.05;;;;;;;;;;4903022;29;20025;-78
2023/03/08 11:08:23;;;;;;;5.68;3.13;;;;;;;;;;4898302;29;20040;-77
2023/03/08 11:10:59;;;;;;;6.00;3.72;;;;;;;;;;4903681;29;20554;-77
2023/03/08 11:13:33;;;;;;;5.70;3.55;;;;;;;;;;4900430;29;20092;-77
2023/03/08 11:16:13;;;;;;;5.35;3.78;;;;;;;;;;4895023;29;20025;-77
2023/03/08 11:18:45;;;;;;;4.95;3.65;;;;;;;;;;4894246;29;20047;-77
2023/03/08 11:21:22;;;;;;;5.75;3.83;;;;;;;;;;4884866;29;20029;-77
2023/03/08 11:23:51;;;;;;;4.45;3.38;;;;;;;;;;4895995;29;20048;-78
2023/03/08 11:26:31;;;;;;;7.20;4.53;;;;;;;;;;4893816;29;20049;-77
2023/03/08 11:28:57;;;;;;;8.27;4.85;;;;;;;;;;4899099;29;20032;-77
2023/03/08 11:31:26;;;;;;;5.60;4.22;;;;;;;;;;4893557;29;20028;-78
2023/03/08 11:34:11;;;;;;;5.63;4.47;;;;;;;;;;4880973;29;20099;-78
2023/03/08 11:36:48;;;;;;;5.57;4.55;;;;;;;;;;4899628;29;20035;-78
2023/03/08 11:39:41;;;;;;;5.68;4.80;;;;;;;;;;4893186;29;20312;-78
2023/03/08 11:42:16;;;;;;;7.50;4.80;;;;;;;;;;4888649;29;20044;-78
2023/03/08 11:44:51;;;;;;;6.90;5.28;;;;;;;;;;4893871;29;20026;-78
2023/03/08 11:47:34;;;;;;;5.88;5.22;;;;;;;;;;4896560;29;20462;-78
2023/03/08 11:50:04;;;;;;;5.53;4.82;;;;;;;;;;4897972;29;20030;-78
2023/03/08 11:52:33;;;;;;;8.02;5.03;;;;;;;;;;4898309;29;20059;-78
2023/03/08 11:55:08;;;;;;;7.35;5.28;;;;;;;;;;4900013;29;20028;-79
2023/03/08 11:57:37;;;;;;;6.38;5.07;;;;;;;;;;4895888;29;20540;-78
2023/03/08 12:00:13;;;;;;;6.68;4.40;;;;;;;;;;4878407;29;20079;-79
2023/03/08 12:02:42;;;;;;;5.22;4.40;;;;;;;;;;4882939;29;20025;-79
2023/03/08 12:05:17;;;;;;;7.60;4.60;;;;;;;;;;4896342;29;20084;-79
2023/03/08 12:07:46;;;;;;;8.27;4.18;;;;;;;;;;4902006;29;20515;-78
2023/03/08 12:10:20;;;;;;;8.30;4.40;;;;;;;;;;4898264;29;20025;-78
2023/03/08 12:12:49;;;;;;;7.03;4.97;;;;;;;;;;4886773;29;20428;-78
2023/03/08 12:15:19;;;;;;;4.38;3.95;;;;;;;;;;4892366;29;20064;-77
2023/03/08 12:17:49;;;;;;;4.25;3.83;;;;;;;;;;4892932;29;20033;-78
2023/03/08 12:20:16;;;;;;;5.40;4.68;;;;;;;;;;4893835;29;20037;-78
2023/03/08 12:22:44;;;;;;;7.63;4.53;;;;;;;;;;4893930;29;20444;-78
2023/03/08 12:25:16;;;;;;;8.20;4.53;;;;;;;;;;4892987;29;20025;-78
2023/03/08 12:27:52;;;;;;;4.47;3.63;;;;;;;;;;4892088;29;20036;-78
2023/03/08 12:30:37;;;;;;;8.23;4.75;;;;;;;;;;4888674;29;20552;-78
2023/03/08 12:33:04;;;;;;;6.43;4.17;;;;;;;;;;4889636;29;20092;-78
2023/03/08 12:35:37;;;;;;;4.82;3.60;;;;;;;;;;4900382;29;20032;-78
2023/03/08 12:38:15;;;;;;;6.25;4.47;;;;;;;;;;4888107;29;20045;-78
2023/03/08 12:40:43;;;;;;;7.75;4.53;;;;;;;;;;4887592;29;20104;-77
2023/03/08 12:43:21;;;;;;;6.22;4.05;;;;;;;;;;4891588;29;20028;-78
2023/03/08 12:45:59;;;;;;;6.18;4.10;;;;;;;;;;4896328;29;20395;-78
2023/03/08 12:48:25;;;;;;;4.95;3.40;;;;;;;;;;4896515;29;20037;-77
2023/03/08 12:50:59;;;;;;;5.15;4.00;;;;;;;;;;4889510;29;20492;-77
2023/03/08 12:53:31;;;;;;;7.35;3.90;;;;;;;;;;4872331;29;20056;-78
2023/03/08 12:56:16;;;;;;;7.38;4.65;;;;;;;;;;4896309;29;20483;-78
2023/03/08 12:58:56;;;;;;;12.98;6.07;;;;;;;;;;4893475;29;20064;-79
2023/03/08 13:01:36;;;;;;;7.68;5.03;;;;;;;;;;4887143;29;20047;-79
2023/03/08 13:04:04;;;;;;;5.28;4.07;;;;;;;;;;4868788;29;20025;-78
2023/03/08 13:06:30;;;;;;;5.22;4.13;;;;;;;;;;4892286;29;20025;-78
2023/03/08 13:09:12;;;;;;;7.63;6.40;;;;;;;;;;4890125;29;20032;-78
2023/03/08 13:11:42;;;;;;;9.65;5.15;;;;;;;;;;4898220;29;20047;-78
2023/03/08 13:14:28;;;;;;;8.90;6.70;;;;;;;;;;4888935;29;20036;-78
2023/03/08 13:16:54;;;;;;;5.47;4.47;;;;;;;;;;4900247;29;20080;-77
2023/03/08 13:19:25;;;;;;;8.90;5.90;;;;;;;;;;4888633;29;20107;-78
2023/03/08 13:21:51;;;;;;;6.97;6.28;;;;;;;;;;4889597;29;20033;-78
2023/03/08 13:24:23;;;;;;;5.10;4.15;;;;;;;;;;4892080;29;20120;-78
2023/03/08 13:27:08;;;;;;;6.90;4.15;;;;;;;;;;4896238;29;20031;-78
2023/03/08 13:29:34;;;;;;;4.93;3.92;;;;;;;;;;4884045;29;20024;-78
2023/03/08 13:32:05;;;;;;;6.22;3.80;;;;;;;;;;4897082;29;20032;-77
2023/03/08 13:34:33;;;;;;;4.80;3.28;;;;;;;;;;4891603;29;20033;-77
2023/03/08 13:37:00;;;;;;;4.95;3.25;;;;;;;;;;4893023;29;20380;-78
2023/03/08 13:39:28;;;;;;;4.10;3.20;;;;;;;;;;4899901;29;20032;-77
2023/03/08 13:42:05;;;;;;;6.32;3.42;;;;;;;;;;4890210;29;20391;-78
2023/03/08 13:44:31;;;;;;;5.43;3.28;;;;;;;;;;4880217;29;20029;-78
2023/03/08 13:47:00;;;;;;;3.08;2.80;;;;;;;;;;4888035;29;20138;-78
2023/03/08 13:49:31;;;;;;;5.97;2.72;;;;;;;;;;4892439;29;20060;-77
2023/03/08 13:51:59;;;;;;;3.88;3.35;;;;;;;;;;4887523;29;20033;-77
2023/03/08 13:54:34;;;;;;;5.45;2.90;;;;;;;;;;4888062;29;20049;-79
2023/03/08 13:57:01;;;;;;;3.47;3.00;;;;;;;;;;4884534;29;20037;-78
2023/03/08 13:59:28;;;;;;;4.38;3.40;;;;;;;;;;4894626;29;20032;-77
2023/03/08 14:01:54;;;;;;;5.13;3.47;;;;;;;;;;4896639;29;20107;-77
2023/03/08 14:04:30;;;;;;;6.47;3.00;;;;;;;;;;4884847;29;20037;-77
2023/03/08 14:06:57;;;;;;;4.28;2.90;;;;;;;;;;4891391;29;20232;-77
2023/03/08 14:09:24;;;;;;;4.20;3.13;;;;;;;;;;4885634;29;20400;-77
2023/03/08 14:12:05;;;;;;;6.60;3.40;;;;;;;;;;4899944;29;20029;-78
2023/03/08 14:14:32;;;;;;;4.22;3.50;;;;;;;;;;4890372;29;20146;-78
2023/03/08 14:16:59;;;;;;;4.35;3.67;;;;;;;;;;4872959;29;20040;-78
2023/03/08 14:19:30;;;;;;;7.95;3.88;;;;;;;;;;4876763;29;20036;-77
2023/03/08 14:22:00;;;;;;;5.55;3.50;;;;;;;;;;4888903;29;20029;-77
2023/03/08 14:24:31;;;;;;;4.93;3.75;;;;;;;;;;4896564;29;20577;-77
2023/03/08 14:26:59;;;;;;;7.25;4.43;;;;;;;;;;4891471;29;20574;-78
2023/03/08 14:29:29;;;;;;;6.07;4.55;;;;;;;;;;4889853;29;20089;-77
2023/03/08 14:32:00;;;;;;;6.43;3.40;;;;;;;;;;4878570;29;20036;-78
2023/03/08 14:34:34;;;;;;;5.35;3.90;;;;;;;;;;4885318;29;20044;-77
2023/03/08 14:37:04;;;;;;;5.30;3.97;;;;;;;;;;4891827;29;20137;-77
2023/03/08 14:39:31;;;;;;;4.95;3.80;;;;;;;;;;4889174;29;20341;-78
2023/03/08 14:41:58;;;;;;;6.05;4.30;;;;;;;;;;4871156;29;20044;-77
2023/03/08 14:44:26;;;;;;;5.13;4.20;;;;;;;;;;4905907;29;20024;-77
2023/03/08 14:46:59;;;;;;;5.68;3.80;;;;;;;;;;4882045;29;20070;-77
2023/03/08 14:49:27;;;;;;;6.75;5.15;;;;;;;;;;4894319;29;20052;-77
2023/03/08 14:51:54;;;;;;;6.10;5.20;;;;;;;;;;4891297;29;20032;-77